sensor_id;sensor_type;location;lat;lon;timestamp;temperature;humidity
5683;DHT22;2864;49.220;8.654;2022-10-13T00:03:50;9.20;99.90
5683;DHT22;2864;49.220;8.654;2022-10-13T00:06:18;9.10;99.90
5683;DHT22;2864;49.220;8.654;2022-10-13T00:08:44;9.20;99.90
5683;DHT22;2864;49.220;8.654;2022-10-13T00:11:11;9.20;99.90
5683;DHT22;2864;49.220;8.654;2022-10-13T00:16:03;9.10;99.90
5683;DHT22;2864;49.220;8.654;2022-10-13T00:18:29;9.10;99.90
5683;DHT22;2864;49.220;8.654;2022-10-13T00:20:54;9.20;99.90
5683;DHT22;2864;49.220;8.654;2022-10-13T00:25:48;9.10;99.90
5683;DHT22;2864;49.220;8.654;2022-10-13T00:28:17;9.10;99.90
5683;DHT22;2864;49.220;8.654;2022-10-13T00:30:44;9.10;99.90
5683;DHT22;2864;49.220;8.654;2022-10-13T00:33:11;9.10;99.90
5683;DHT22;2864;49.220;8.654;2022-10-13T00:35:44;9.00;99.90
5683;DHT22;2864;49.220;8.654;2022-10-13T00:40:51;8.90;99.90
5683;DHT22;2864;49.220;8.654;2022-10-13T00:53:30;8.80;99.90
5683;DHT22;2864;49.220;8.654;2022-10-13T00:55:57;8.70;99.90
5683;DHT22;2864;49.220;8.654;2022-10-13T00:58:24;8.50;99.90
5683;DHT22;2864;49.220;8.654;2022-10-13T01:00:52;8.70;99.90
5683;DHT22;2864;49.220;8.654;2022-10-13T01:03:18;8.60;99.90
5683;DHT22;2864;49.220;8.654;2022-10-13T01:05:45;8.60;99.90
5683;DHT22;2864;49.220;8.654;2022-10-13T01:08:13;8.50;99.90
5683;DHT22;2864;49.220;8.654;2022-10-13T01:16:39;8.40;99.90
5683;DHT22;2864;49.220;8.654;2022-10-13T01:27:59;8.20;99.90
5683;DHT22;2864;49.220;8.654;2022-10-13T01:30:35;8.10;99.90
5683;DHT22;2864;49.220;8.654;2022-10-13T01:33:44;8.20;99.90
5683;DHT22;2864;49.220;8.654;2022-10-13T01:36:43;8.20;99.90
5683;DHT22;2864;49.220;8.654;2022-10-13T01:39:28;8.10;99.90
5683;DHT22;2864;49.220;8.654;2022-10-13T01:42:01;8.10;99.90
5683;DHT22;2864;49.220;8.654;2022-10-13T01:44:35;8.20;99.90
5683;DHT22;2864;49.220;8.654;2022-10-13T01:47:02;8.20;99.90
5683;DHT22;2864;49.220;8.654;2022-10-13T01:49:33;8.20;99.90
5683;DHT22;2864;49.220;8.654;2022-10-13T01:52:02;8.10;99.90
5683;DHT22;2864;49.220;8.654;2022-10-13T01:56:55;8.10;99.90
5683;DHT22;2864;49.220;8.654;2022-10-13T01:59:23;8.10;99.90
5683;DHT22;2864;49.220;8.654;2022-10-13T02:02:03;8.20;99.90
5683;DHT22;2864;49.220;8.654;2022-10-13T02:09:48;8.20;99.90
5683;DHT22;2864;49.220;8.654;2022-10-13T02:12:28;8.30;99.90
5683;DHT22;2864;49.220;8.654;2022-10-13T02:14:56;8.30;99.90
5683;DHT22;2864;49.220;8.654;2022-10-13T02:17:23;8.30;99.90
5683;DHT22;2864;49.220;8.654;2022-10-13T02:19:52;8.30;99.90
5683;DHT22;2864;49.220;8.654;2022-10-13T02:22:19;8.30;99.90
5683;DHT22;2864;49.220;8.654;2022-10-13T02:27:12;8.30;99.90
5683;DHT22;2864;49.220;8.654;2022-10-13T02:29:52;8.40;99.90
5683;DHT22;2864;49.220;8.654;2022-10-13T02:32:19;8.40;99.90
5683;DHT22;2864;49.220;8.654;2022-10-13T02:34:44;8.50;99.90
5683;DHT22;2864;49.220;8.654;2022-10-13T02:39:37;8.50;99.90
5683;DHT22;2864;49.220;8.654;2022-10-13T02:42:02;8.60;99.90
5683;DHT22;2864;49.220;8.654;2022-10-13T02:46:54;8.70;99.90
5683;DHT22;2864;49.220;8.654;2022-10-13T02:49:19;8.70;99.90
5683;DHT22;2864;49.220;8.654;2022-10-13T02:54:11;8.90;99.90
5683;DHT22;2864;49.220;8.654;2022-10-13T03:02:26;9.00;99.90
5683;DHT22;2864;49.220;8.654;2022-10-13T03:04:52;9.10;99.90
5683;DHT22;2864;49.220;8.654;2022-10-13T03:07:18;9.10;99.90
5683;DHT22;2864;49.220;8.654;2022-10-13T03:09:44;9.10;99.90
5683;DHT22;2864;49.220;8.654;2022-10-13T03:19:27;9.30;99.90
5683;DHT22;2864;49.220;8.654;2022-10-13T03:21:53;9.30;99.90
5683;DHT22;2864;49.220;8.654;2022-10-13T03:26:44;9.30;99.90
5683;DHT22;2864;49.220;8.654;2022-10-13T03:29:14;9.40;99.90
5683;DHT22;2864;49.220;8.654;2022-10-13T03:34:07;9.40;99.90
5683;DHT22;2864;49.220;8.654;2022-10-13T03:36:33;9.40;99.90
5683;DHT22;2864;49.220;8.654;2022-10-13T03:41:24;9.40;99.90
5683;DHT22;2864;49.220;8.654;2022-10-13T03:46:17;9.30;99.90
5683;DHT22;2864;49.220;8.654;2022-10-13T03:48:43;9.30;99.90
5683;DHT22;2864;49.220;8.654;2022-10-13T03:51:17;9.30;99.90
5683;DHT22;2864;49.220;8.654;2022-10-13T03:53:43;9.30;99.90
5683;DHT22;2864;49.220;8.654;2022-10-13T03:56:11;9.30;99.90
5683;DHT22;2864;49.220;8.654;2022-10-13T03:58:41;9.30;99.90
5683;DHT22;2864;49.220;8.654;2022-10-13T04:01:07;9.30;99.90
5683;DHT22;2864;49.220;8.654;2022-10-13T04:03:33;9.20;99.90
5683;DHT22;2864;49.220;8.654;2022-10-13T04:06:00;9.20;99.90
5683;DHT22;2864;49.220;8.654;2022-10-13T04:08:28;9.20;99.90
5683;DHT22;2864;49.220;8.654;2022-10-13T04:11:03;9.20;99.90
5683;DHT22;2864;49.220;8.654;2022-10-13T04:13:29;9.20;99.90
5683;DHT22;2864;49.220;8.654;2022-10-13T04:16:01;9.10;99.90
5683;DHT22;2864;49.220;8.654;2022-10-13T04:23:18;9.20;99.90
5683;DHT22;2864;49.220;8.654;2022-10-13T04:25:44;9.30;99.90
5683;DHT22;2864;49.220;8.654;2022-10-13T04:28:10;9.30;99.90
5683;DHT22;2864;49.220;8.654;2022-10-13T04:30:36;9.30;99.90
5683;DHT22;2864;49.220;8.654;2022-10-13T04:33:02;9.30;99.90
5683;DHT22;2864;49.220;8.654;2022-10-13T04:45:14;9.30;99.90
5683;DHT22;2864;49.220;8.654;2022-10-13T04:50:06;9.20;99.90
5683;DHT22;2864;49.220;8.654;2022-10-13T04:52:33;9.30;99.90
5683;DHT22;2864;49.220;8.654;2022-10-13T04:54:59;9.20;99.90
5683;DHT22;2864;49.220;8.654;2022-10-13T04:59:50;9.20;99.90
5683;DHT22;2864;49.220;8.654;2022-10-13T05:02:16;9.20;99.90
5683;DHT22;2864;49.220;8.654;2022-10-13T05:16:51;9.10;99.90
5683;DHT22;2864;49.220;8.654;2022-10-13T05:19:17;9.20;99.90
5683;DHT22;2864;49.220;8.654;2022-10-13T05:24:08;9.10;99.90
5683;DHT22;2864;49.220;8.654;2022-10-13T05:26:38;11.60;99.90
5683;DHT22;2864;49.220;8.654;2022-10-13T05:29:05;9.10;99.90
5683;DHT22;2864;49.220;8.654;2022-10-13T05:31:32;9.10;99.90
5683;DHT22;2864;49.220;8.654;2022-10-13T05:33:58;9.10;99.90
5683;DHT22;2864;49.220;8.654;2022-10-13T05:36:26;9.10;99.90
5683;DHT22;2864;49.220;8.654;2022-10-13T05:38:56;9.20;99.90
5683;DHT22;2864;49.220;8.654;2022-10-13T05:41:23;9.20;99.90
5683;DHT22;2864;49.220;8.654;2022-10-13T05:43:52;9.20;99.90
5683;DHT22;2864;49.220;8.654;2022-10-13T05:48:44;9.20;99.90
5683;DHT22;2864;49.220;8.654;2022-10-13T05:51:13;9.30;99.90
5683;DHT22;2864;49.220;8.654;2022-10-13T05:53:43;9.30;99.90
5683;DHT22;2864;49.220;8.654;2022-10-13T05:56:14;9.30;99.90
5683;DHT22;2864;49.220;8.654;2022-10-13T05:58:44;9.30;99.90
5683;DHT22;2864;49.220;8.654;2022-10-13T06:01:14;9.30;99.90
5683;DHT22;2864;49.220;8.654;2022-10-13T06:07:03;9.40;99.90
5683;DHT22;2864;49.220;8.654;2022-10-13T06:09:32;9.40;99.90
5683;DHT22;2864;49.220;8.654;2022-10-13T06:11:59;9.40;99.90
5683;DHT22;2864;49.220;8.654;2022-10-13T06:14:24;9.50;99.90
5683;DHT22;2864;49.220;8.654;2022-10-13T06:16:50;9.50;99.90
5683;DHT22;2864;49.220;8.654;2022-10-13T06:19:16;9.50;99.90
5683;DHT22;2864;49.220;8.654;2022-10-13T06:21:41;9.50;99.90
5683;DHT22;2864;49.220;8.654;2022-10-13T06:24:07;9.60;99.90
5683;DHT22;2864;49.220;8.654;2022-10-13T06:26:32;9.60;99.90
5683;DHT22;2864;49.220;8.654;2022-10-13T06:28:58;10.30;99.90
5683;DHT22;2864;49.220;8.654;2022-10-13T06:31:24;9.70;99.90
5683;DHT22;2864;49.220;8.654;2022-10-13T06:33:50;9.80;99.90
5683;DHT22;2864;49.220;8.654;2022-10-13T06:36:15;10.00;99.90
5683;DHT22;2864;49.220;8.654;2022-10-13T06:38:41;12.20;99.90
5683;DHT22;2864;49.220;8.654;2022-10-13T06:41:06;10.00;99.90
5683;DHT22;2864;49.220;8.654;2022-10-13T06:43:32;10.10;99.90
5683;DHT22;2864;49.220;8.654;2022-10-13T06:45:59;10.10;99.90
5683;DHT22;2864;49.220;8.654;2022-10-13T06:48:25;10.20;99.90
5683;DHT22;2864;49.220;8.654;2022-10-13T06:50:51;10.20;99.90
5683;DHT22;2864;49.220;8.654;2022-10-13T06:53:16;10.30;99.90
5683;DHT22;2864;49.220;8.654;2022-10-13T06:55:42;10.40;99.90
5683;DHT22;2864;49.220;8.654;2022-10-13T06:58:09;10.40;99.90
5683;DHT22;2864;49.220;8.654;2022-10-13T07:00:36;11.30;99.90
5683;DHT22;2864;49.220;8.654;2022-10-13T07:03:02;12.10;99.90
5683;DHT22;2864;49.220;8.654;2022-10-13T07:05:27;10.60;99.90
5683;DHT22;2864;49.220;8.654;2022-10-13T07:07:54;10.70;99.90
5683;DHT22;2864;49.220;8.654;2022-10-13T07:10:19;10.80;99.90
5683;DHT22;2864;49.220;8.654;2022-10-13T07:12:45;10.80;99.90
5683;DHT22;2864;49.220;8.654;2022-10-13T07:15:11;10.90;99.90
5683;DHT22;2864;49.220;8.654;2022-10-13T07:17:37;11.00;99.90
5683;DHT22;2864;49.220;8.654;2022-10-13T07:20:03;11.00;99.90
5683;DHT22;2864;49.220;8.654;2022-10-13T07:22:29;11.10;99.90
5683;DHT22;2864;49.220;8.654;2022-10-13T07:24:55;11.10;99.90
5683;DHT22;2864;49.220;8.654;2022-10-13T07:27:21;11.20;99.90
5683;DHT22;2864;49.220;8.654;2022-10-13T07:29:46;11.40;99.90
5683;DHT22;2864;49.220;8.654;2022-10-13T07:32:12;11.40;99.90
5683;DHT22;2864;49.220;8.654;2022-10-13T07:34:37;11.60;99.90
5683;DHT22;2864;49.220;8.654;2022-10-13T07:37:03;12.40;99.90
5683;DHT22;2864;49.220;8.654;2022-10-13T07:39:29;11.80;99.90
5683;DHT22;2864;49.220;8.654;2022-10-13T07:41:55;11.80;99.90
5683;DHT22;2864;49.220;8.654;2022-10-13T07:44:21;13.30;99.90
5683;DHT22;2864;49.220;8.654;2022-10-13T07:46:46;12.30;99.90
5683;DHT22;2864;49.220;8.654;2022-10-13T07:49:12;13.20;99.90
5683;DHT22;2864;49.220;8.654;2022-10-13T07:51:38;13.70;99.90
5683;DHT22;2864;49.220;8.654;2022-10-13T07:54:03;13.40;99.90
5683;DHT22;2864;49.220;8.654;2022-10-13T07:56:29;12.50;99.90
5683;DHT22;2864;49.220;8.654;2022-10-13T07:58:54;13.80;99.90
5683;DHT22;2864;49.220;8.654;2022-10-13T08:01:20;14.90;99.90
5683;DHT22;2864;49.220;8.654;2022-10-13T08:03:46;13.30;99.90
5683;DHT22;2864;49.220;8.654;2022-10-13T08:06:11;12.90;99.90
5683;DHT22;2864;49.220;8.654;2022-10-13T08:08:37;13.00;99.90
5683;DHT22;2864;49.220;8.654;2022-10-13T08:11:07;13.10;99.90
5683;DHT22;2864;49.220;8.654;2022-10-13T08:13:33;13.80;99.90
5683;DHT22;2864;49.220;8.654;2022-10-13T08:16:00;14.00;99.90
5683;DHT22;2864;49.220;8.654;2022-10-13T08:18:26;13.30;99.90
5683;DHT22;2864;49.220;8.654;2022-10-13T08:20:52;14.70;99.90
5683;DHT22;2864;49.220;8.654;2022-10-13T08:23:17;13.40;99.90
5683;DHT22;2864;49.220;8.654;2022-10-13T08:25:43;13.60;99.90
5683;DHT22;2864;49.220;8.654;2022-10-13T08:28:21;13.80;99.90
5683;DHT22;2864;49.220;8.654;2022-10-13T08:30:47;14.20;99.90
5683;DHT22;2864;49.220;8.654;2022-10-13T08:33:13;14.80;99.90
5683;DHT22;2864;49.220;8.654;2022-10-13T08:35:39;13.90;99.90
5683;DHT22;2864;49.220;8.654;2022-10-13T08:38:04;15.70;99.90
5683;DHT22;2864;49.220;8.654;2022-10-13T08:40:30;14.90;99.90
5683;DHT22;2864;49.220;8.654;2022-10-13T08:42:56;13.80;99.90
5683;DHT22;2864;49.220;8.654;2022-10-13T08:45:25;14.10;99.90
5683;DHT22;2864;49.220;8.654;2022-10-13T08:47:56;13.80;99.90
5683;DHT22;2864;49.220;8.654;2022-10-13T08:50:28;13.80;99.90
5683;DHT22;2864;49.220;8.654;2022-10-13T08:53:04;13.80;99.90
5683;DHT22;2864;49.220;8.654;2022-10-13T08:55:38;14.00;99.90
5683;DHT22;2864;49.220;8.654;2022-10-13T08:58:20;13.90;99.90
5683;DHT22;2864;49.220;8.654;2022-10-13T09:00:46;13.80;99.90
5683;DHT22;2864;49.220;8.654;2022-10-13T09:03:24;13.80;99.90
5683;DHT22;2864;49.220;8.654;2022-10-13T09:06:19;13.60;99.90
5683;DHT22;2864;49.220;8.654;2022-10-13T09:08:55;13.50;99.90
5683;DHT22;2864;49.220;8.654;2022-10-13T09:11:21;14.30;99.90
5683;DHT22;2864;49.220;8.654;2022-10-13T09:13:47;13.40;99.90
5683;DHT22;2864;49.220;8.654;2022-10-13T09:16:13;15.00;99.90
5683;DHT22;2864;49.220;8.654;2022-10-13T09:18:39;13.50;99.90
5683;DHT22;2864;49.220;8.654;2022-10-13T09:23:36;13.40;99.90
5683;DHT22;2864;49.220;8.654;2022-10-13T09:26:08;13.40;99.90
5683;DHT22;2864;49.220;8.654;2022-10-13T09:28:37;13.40;99.90
5683;DHT22;2864;49.220;8.654;2022-10-13T09:31:27;13.40;99.90
5683;DHT22;2864;49.220;8.654;2022-10-13T09:39:20;13.60;99.90
5683;DHT22;2864;49.220;8.654;2022-10-13T09:41:47;13.70;99.90
5683;DHT22;2864;49.220;8.654;2022-10-13T09:44:17;13.70;99.90
5683;DHT22;2864;49.220;8.654;2022-10-13T09:46:45;13.70;99.90
5683;DHT22;2864;49.220;8.654;2022-10-13T09:49:29;13.60;99.90
5683;DHT22;2864;49.220;8.654;2022-10-13T10:02:35;13.70;99.90
5683;DHT22;2864;49.220;8.654;2022-10-13T10:05:22;13.70;99.90
5683;DHT22;2864;49.220;8.654;2022-10-13T10:07:49;13.90;99.90
5683;DHT22;2864;49.220;8.654;2022-10-13T10:10:33;13.90;99.90
5683;DHT22;2864;49.220;8.654;2022-10-13T10:13:00;14.00;99.90
5683;DHT22;2864;49.220;8.654;2022-10-13T10:15:52;14.10;99.90
5683;DHT22;2864;49.220;8.654;2022-10-13T10:18:38;14.30;99.90
5683;DHT22;2864;49.220;8.654;2022-10-13T10:21:16;14.50;99.90
5683;DHT22;2864;49.220;8.654;2022-10-13T10:24:01;15.00;99.90
5683;DHT22;2864;49.220;8.654;2022-10-13T10:29:31;15.40;99.90
5683;DHT22;2864;49.220;8.654;2022-10-13T10:34:50;15.30;99.90
5683;DHT22;2864;49.220;8.654;2022-10-13T10:43:15;15.20;99.90
5683;DHT22;2864;49.220;8.654;2022-10-13T10:45:41;15.30;99.90
5683;DHT22;2864;49.220;8.654;2022-10-13T10:48:30;15.20;99.90
5683;DHT22;2864;49.220;8.654;2022-10-13T10:50:57;15.20;99.90
5683;DHT22;2864;49.220;8.654;2022-10-13T10:56:39;15.20;99.90
5683;DHT22;2864;49.220;8.654;2022-10-13T10:59:36;15.30;99.90
5683;DHT22;2864;49.220;8.654;2022-10-13T11:04:52;15.80;99.90
5683;DHT22;2864;49.220;8.654;2022-10-13T11:17:35;16.90;99.90
5683;DHT22;2864;49.220;8.654;2022-10-13T11:25:45;17.30;99.90
5683;DHT22;2864;49.220;8.654;2022-10-13T11:31:25;17.30;99.90
5683;DHT22;2864;49.220;8.654;2022-10-13T11:45:17;17.40;99.90
5683;DHT22;2864;49.220;8.654;2022-10-13T11:53:23;18.00;99.90
5683;DHT22;2864;49.220;8.654;2022-10-13T11:55:58;18.00;99.90
5683;DHT22;2864;49.220;8.654;2022-10-13T12:05:18;18.40;99.90
5683;DHT22;2864;49.220;8.654;2022-10-13T12:07:45;18.50;99.90
5683;DHT22;2864;49.220;8.654;2022-10-13T12:10:20;18.20;99.90
5683;DHT22;2864;49.220;8.654;2022-10-13T12:12:48;19.80;99.90
5683;DHT22;2864;49.220;8.654;2022-10-13T12:15:43;18.20;99.90
5683;DHT22;2864;49.220;8.654;2022-10-13T12:18:29;18.40;99.90
5683;DHT22;2864;49.220;8.654;2022-10-13T12:21:00;18.20;99.90
5683;DHT22;2864;49.220;8.654;2022-10-13T12:23:30;18.20;99.90
5683;DHT22;2864;49.220;8.654;2022-10-13T12:25:56;17.90;99.90
5683;DHT22;2864;49.220;8.654;2022-10-13T12:28:42;17.60;99.90
5683;DHT22;2864;49.220;8.654;2022-10-13T12:31:22;17.00;99.90
5683;DHT22;2864;49.220;8.654;2022-10-13T12:33:56;17.00;99.90
5683;DHT22;2864;49.220;8.654;2022-10-13T12:36:26;16.90;99.90
5683;DHT22;2864;49.220;8.654;2022-10-13T12:38:54;16.90;99.90
5683;DHT22;2864;49.220;8.654;2022-10-13T12:41:26;17.80;99.90
5683;DHT22;2864;49.220;8.654;2022-10-13T12:43:53;17.20;99.90
5683;DHT22;2864;49.220;8.654;2022-10-13T12:46:45;17.00;99.90
5683;DHT22;2864;49.220;8.654;2022-10-13T12:49:14;16.70;99.90
5683;DHT22;2864;49.220;8.654;2022-10-13T12:51:42;16.70;99.90
5683;DHT22;2864;49.220;8.654;2022-10-13T12:54:20;17.10;99.90
5683;DHT22;2864;49.220;8.654;2022-10-13T12:56:47;16.80;99.90
5683;DHT22;2864;49.220;8.654;2022-10-13T12:59:17;16.90;99.90
5683;DHT22;2864;49.220;8.654;2022-10-13T13:01:43;16.80;99.90
5683;DHT22;2864;49.220;8.654;2022-10-13T13:06:55;18.50;99.90
5683;DHT22;2864;49.220;8.654;2022-10-13T13:09:29;17.30;99.90
5683;DHT22;2864;49.220;8.654;2022-10-13T13:14:39;17.80;99.90
5683;DHT22;2864;49.220;8.654;2022-10-13T13:17:19;18.60;99.90
5683;DHT22;2864;49.220;8.654;2022-10-13T13:19:50;17.90;99.90
5683;DHT22;2864;49.220;8.654;2022-10-13T13:22:16;18.00;99.90
5683;DHT22;2864;49.220;8.654;2022-10-13T13:24:42;17.80;99.90
5683;DHT22;2864;49.220;8.654;2022-10-13T13:29:50;17.50;99.90
5683;DHT22;2864;49.220;8.654;2022-10-13T13:32:17;17.40;99.90
5683;DHT22;2864;49.220;8.654;2022-10-13T13:34:43;17.30;99.90
5683;DHT22;2864;49.220;8.654;2022-10-13T13:37:19;18.50;99.90
5683;DHT22;2864;49.220;8.654;2022-10-13T13:39:47;17.00;99.90
5683;DHT22;2864;49.220;8.654;2022-10-13T13:42:13;16.90;99.90
5683;DHT22;2864;49.220;8.654;2022-10-13T13:44:39;16.90;99.90
5683;DHT22;2864;49.220;8.654;2022-10-13T13:47:14;17.20;99.90
5683;DHT22;2864;49.220;8.654;2022-10-13T13:49:40;17.20;99.90
5683;DHT22;2864;49.220;8.654;2022-10-13T13:52:05;18.40;99.90
5683;DHT22;2864;49.220;8.654;2022-10-13T13:54:31;18.60;99.90
5683;DHT22;2864;49.220;8.654;2022-10-13T13:56:56;17.90;99.90
5683;DHT22;2864;49.220;8.654;2022-10-13T13:59:22;18.10;99.90
5683;DHT22;2864;49.220;8.654;2022-10-13T14:01:47;18.50;99.90
5683;DHT22;2864;49.220;8.654;2022-10-13T14:04:13;18.80;99.90
5683;DHT22;2864;49.220;8.654;2022-10-13T14:06:38;18.60;99.90
5683;DHT22;2864;49.220;8.654;2022-10-13T14:09:04;18.80;99.90
5683;DHT22;2864;49.220;8.654;2022-10-13T14:11:30;18.60;99.90
5683;DHT22;2864;49.220;8.654;2022-10-13T14:13:55;18.80;99.90
5683;DHT22;2864;49.220;8.654;2022-10-13T14:16:26;19.80;99.90
5683;DHT22;2864;49.220;8.654;2022-10-13T14:18:52;18.70;99.90
5683;DHT22;2864;49.220;8.654;2022-10-13T14:21:17;18.30;99.90
5683;DHT22;2864;49.220;8.654;2022-10-13T14:23:43;18.30;99.90
5683;DHT22;2864;49.220;8.654;2022-10-13T14:26:11;18.10;99.90
5683;DHT22;2864;49.220;8.654;2022-10-13T14:28:40;17.90;99.90
5683;DHT22;2864;49.220;8.654;2022-10-13T14:31:06;17.70;99.90
5683;DHT22;2864;49.220;8.654;2022-10-13T14:33:32;17.70;99.90
5683;DHT22;2864;49.220;8.654;2022-10-13T14:36:02;17.50;99.90
5683;DHT22;2864;49.220;8.654;2022-10-13T14:38:28;17.40;99.90
5683;DHT22;2864;49.220;8.654;2022-10-13T14:41:00;17.40;99.90
5683;DHT22;2864;49.220;8.654;2022-10-13T14:43:27;17.30;99.90
5683;DHT22;2864;49.220;8.654;2022-10-13T14:45:53;17.40;99.90
5683;DHT22;2864;49.220;8.654;2022-10-13T14:48:19;18.70;99.90
5683;DHT22;2864;49.220;8.654;2022-10-13T14:50:45;17.10;99.90
5683;DHT22;2864;49.220;8.654;2022-10-13T14:53:10;18.50;99.90
5683;DHT22;2864;49.220;8.654;2022-10-13T14:55:41;17.10;99.90
5683;DHT22;2864;49.220;8.654;2022-10-13T14:58:07;17.00;99.90
5683;DHT22;2864;49.220;8.654;2022-10-13T15:00:32;17.10;99.90
5683;DHT22;2864;49.220;8.654;2022-10-13T15:02:58;17.20;99.90
5683;DHT22;2864;49.220;8.654;2022-10-13T15:05:24;17.20;99.90
5683;DHT22;2864;49.220;8.654;2022-10-13T15:07:49;18.30;99.90
5683;DHT22;2864;49.220;8.654;2022-10-13T15:10:15;18.10;99.90
5683;DHT22;2864;49.220;8.654;2022-10-13T15:12:40;17.00;99.90
5683;DHT22;2864;49.220;8.654;2022-10-13T15:15:06;16.80;99.90
5683;DHT22;2864;49.220;8.654;2022-10-13T15:17:32;16.70;99.90
5683;DHT22;2864;49.220;8.654;2022-10-13T15:19:58;16.70;99.90
5683;DHT22;2864;49.220;8.654;2022-10-13T15:22:24;16.70;99.90
5683;DHT22;2864;49.220;8.654;2022-10-13T15:24:49;16.50;99.90
5683;DHT22;2864;49.220;8.654;2022-10-13T15:27:15;16.40;99.90
5683;DHT22;2864;49.220;8.654;2022-10-13T15:29:41;16.40;99.90
5683;DHT22;2864;49.220;8.654;2022-10-13T15:32:08;16.30;99.90
5683;DHT22;2864;49.220;8.654;2022-10-13T15:34:34;17.40;99.90
5683;DHT22;2864;49.220;8.654;2022-10-13T15:37:02;16.20;99.90
5683;DHT22;2864;49.220;8.654;2022-10-13T15:39:27;16.20;99.90
5683;DHT22;2864;49.220;8.654;2022-10-13T15:41:53;16.10;99.90
5683;DHT22;2864;49.220;8.654;2022-10-13T15:44:18;16.10;99.90
5683;DHT22;2864;49.220;8.654;2022-10-13T15:46:45;16.10;99.90
5683;DHT22;2864;49.220;8.654;2022-10-13T15:49:11;16.10;99.90
5683;DHT22;2864;49.220;8.654;2022-10-13T15:51:36;16.10;99.90
5683;DHT22;2864;49.220;8.654;2022-10-13T15:54:02;16.10;99.90
5683;DHT22;2864;49.220;8.654;2022-10-13T15:56:27;16.10;99.90
5683;DHT22;2864;49.220;8.654;2022-10-13T15:58:53;16.10;99.90
5683;DHT22;2864;49.220;8.654;2022-10-13T16:01:18;16.10;99.90
5683;DHT22;2864;49.220;8.654;2022-10-13T16:03:44;16.10;99.90
5683;DHT22;2864;49.220;8.654;2022-10-13T16:06:11;16.10;99.90
5683;DHT22;2864;49.220;8.654;2022-10-13T16:11:08;16.00;99.90
5683;DHT22;2864;49.220;8.654;2022-10-13T16:13:34;15.90;99.90
5683;DHT22;2864;49.220;8.654;2022-10-13T16:16:00;15.80;99.90
5683;DHT22;2864;49.220;8.654;2022-10-13T16:18:30;15.60;99.90
5683;DHT22;2864;49.220;8.654;2022-10-13T16:20:56;15.50;99.90
5683;DHT22;2864;49.220;8.654;2022-10-13T16:23:22;15.60;99.90
5683;DHT22;2864;49.220;8.654;2022-10-13T16:25:48;15.30;99.90
5683;DHT22;2864;49.220;8.654;2022-10-13T16:28:14;15.30;99.90
5683;DHT22;2864;49.220;8.654;2022-10-13T16:30:40;15.20;99.90
5683;DHT22;2864;49.220;8.654;2022-10-13T16:33:06;15.20;99.90
5683;DHT22;2864;49.220;8.654;2022-10-13T16:35:32;15.20;99.90
5683;DHT22;2864;49.220;8.654;2022-10-13T16:38:02;15.00;99.90
5683;DHT22;2864;49.220;8.654;2022-10-13T16:40:28;14.90;99.90
5683;DHT22;2864;49.220;8.654;2022-10-13T16:45:19;14.70;99.90
5683;DHT22;2864;49.220;8.654;2022-10-13T16:47:49;14.70;99.90
5683;DHT22;2864;49.220;8.654;2022-10-13T16:50:15;14.60;99.90
5683;DHT22;2864;49.220;8.654;2022-10-13T16:52:41;14.50;99.90
5683;DHT22;2864;49.220;8.654;2022-10-13T16:55:07;14.60;99.90
5683;DHT22;2864;49.220;8.654;2022-10-13T16:57:32;14.60;99.90
5683;DHT22;2864;49.220;8.654;2022-10-13T16:59:58;14.60;99.90
5683;DHT22;2864;49.220;8.654;2022-10-13T17:04:50;14.50;99.90
5683;DHT22;2864;49.220;8.654;2022-10-13T17:07:15;14.50;99.90
5683;DHT22;2864;49.220;8.654;2022-10-13T17:09:41;14.40;99.90
5683;DHT22;2864;49.220;8.654;2022-10-13T17:12:07;14.30;99.90
5683;DHT22;2864;49.220;8.654;2022-10-13T17:14:32;14.30;99.90
5683;DHT22;2864;49.220;8.654;2022-10-13T17:19:24;14.20;99.90
5683;DHT22;2864;49.220;8.654;2022-10-13T17:21:50;14.20;99.90
5683;DHT22;2864;49.220;8.654;2022-10-13T17:29:08;14.10;99.90
5683;DHT22;2864;49.220;8.654;2022-10-13T17:31:33;14.00;99.90
5683;DHT22;2864;49.220;8.654;2022-10-13T17:33:59;14.00;99.90
5683;DHT22;2864;49.220;8.654;2022-10-13T17:36:26;14.00;99.90
5683;DHT22;2864;49.220;8.654;2022-10-13T17:38:54;14.10;99.90
5683;DHT22;2864;49.220;8.654;2022-10-13T17:41:21;14.00;99.90
5683;DHT22;2864;49.220;8.654;2022-10-13T17:43:48;14.00;99.90
5683;DHT22;2864;49.220;8.654;2022-10-13T17:46:20;13.90;99.90
5683;DHT22;2864;49.220;8.654;2022-10-13T17:48:46;13.90;99.90
5683;DHT22;2864;49.220;8.654;2022-10-13T17:51:13;10.20;99.90
5683;DHT22;2864;49.220;8.654;2022-10-13T17:53:40;13.90;99.90
5683;DHT22;2864;49.220;8.654;2022-10-13T17:56:10;13.90;99.90
5683;DHT22;2864;49.220;8.654;2022-10-13T17:58:37;13.80;99.90
5683;DHT22;2864;49.220;8.654;2022-10-13T18:01:11;13.80;99.90
5683;DHT22;2864;49.220;8.654;2022-10-13T18:03:42;13.00;99.90
5683;DHT22;2864;49.220;8.654;2022-10-13T18:06:08;13.90;99.90
5683;DHT22;2864;49.220;8.654;2022-10-13T18:08:33;13.90;99.90
5683;DHT22;2864;49.220;8.654;2022-10-13T18:11:06;13.80;99.90
5683;DHT22;2864;49.220;8.654;2022-10-13T18:16:16;13.70;99.90
5683;DHT22;2864;49.220;8.654;2022-10-13T18:18:43;13.70;99.90
5683;DHT22;2864;49.220;8.654;2022-10-13T18:21:11;13.70;99.90
5683;DHT22;2864;49.220;8.654;2022-10-13T18:23:38;13.70;99.90
5683;DHT22;2864;49.220;8.654;2022-10-13T18:26:06;13.70;99.90
5683;DHT22;2864;49.220;8.654;2022-10-13T18:28:33;13.80;99.90
5683;DHT22;2864;49.220;8.654;2022-10-13T18:31:10;13.70;99.90
5683;DHT22;2864;49.220;8.654;2022-10-13T18:36:12;13.70;99.90
5683;DHT22;2864;49.220;8.654;2022-10-13T18:38:38;13.70;99.90
5683;DHT22;2864;49.220;8.654;2022-10-13T18:41:04;13.70;99.90
5683;DHT22;2864;49.220;8.654;2022-10-13T18:46:00;13.60;99.90
5683;DHT22;2864;49.220;8.654;2022-10-13T18:48:26;13.60;99.90
5683;DHT22;2864;49.220;8.654;2022-10-13T18:53:18;13.50;99.90
5683;DHT22;2864;49.220;8.654;2022-10-13T18:55:44;13.60;99.90
5683;DHT22;2864;49.220;8.654;2022-10-13T18:58:10;13.50;99.90
5683;DHT22;2864;49.220;8.654;2022-10-13T19:03:02;13.60;99.90
5683;DHT22;2864;49.220;8.654;2022-10-13T19:05:29;13.70;99.90
5683;DHT22;2864;49.220;8.654;2022-10-13T19:10:21;13.70;99.90
5683;DHT22;2864;49.220;8.654;2022-10-13T19:12:46;13.70;99.90
5683;DHT22;2864;49.220;8.654;2022-10-13T19:15:12;13.60;99.90
5683;DHT22;2864;49.220;8.654;2022-10-13T19:17:37;13.70;99.90
5683;DHT22;2864;49.220;8.654;2022-10-13T19:20:03;13.60;99.90
5683;DHT22;2864;49.220;8.654;2022-10-13T19:22:29;13.50;99.90
5683;DHT22;2864;49.220;8.654;2022-10-13T19:24:54;13.50;99.90
5683;DHT22;2864;49.220;8.654;2022-10-13T19:32:12;13.60;99.90
5683;DHT22;2864;49.220;8.654;2022-10-13T19:34:37;13.60;99.90
5683;DHT22;2864;49.220;8.654;2022-10-13T19:37:03;13.60;99.90
5683;DHT22;2864;49.220;8.654;2022-10-13T19:41:56;13.60;99.90
5683;DHT22;2864;49.220;8.654;2022-10-13T19:44:23;13.60;99.90
5683;DHT22;2864;49.220;8.654;2022-10-13T19:46:50;13.70;99.90
5683;DHT22;2864;49.220;8.654;2022-10-13T19:49:17;13.70;99.90
5683;DHT22;2864;49.220;8.654;2022-10-13T19:51:44;13.80;99.90
5683;DHT22;2864;49.220;8.654;2022-10-13T19:54:10;13.80;99.90
5683;DHT22;2864;49.220;8.654;2022-10-13T19:56:36;13.80;99.90
5683;DHT22;2864;49.220;8.654;2022-10-13T19:59:02;13.80;99.90
5683;DHT22;2864;49.220;8.654;2022-10-13T20:01:32;13.60;99.90
5683;DHT22;2864;49.220;8.654;2022-10-13T20:04:08;13.80;99.90
5683;DHT22;2864;49.220;8.654;2022-10-13T20:06:34;13.80;99.90
5683;DHT22;2864;49.220;8.654;2022-10-13T20:09:00;13.80;99.90
5683;DHT22;2864;49.220;8.654;2022-10-13T20:11:26;13.80;99.90
5683;DHT22;2864;49.220;8.654;2022-10-13T20:13:52;13.80;99.90